| time (UTC) | temp F | wind direction | speed knots | gust knots | rain 1hr in | rain 24hr in | rain mn in | humidity % | barometer mb |
| 20260906173820 | 77 | 360 | 0.9 | 1.7 | 0.00 | 0.00 | 0.00 | 56 | 1024.5 |
| 20260906171820 | 79 | 135 | 0.0 | 0.0 | 0.00 | 0.00 | 0.00 | 56 | 1024.5 |
| 20260906170819 | 78 | 86 | 0.9 | 2.6 | 0.00 | 0.00 | 0.00 | 57 | 1024.5 |
| 20260906165821 | 77 | 225 | 0.0 | 0.0 | 0.00 | 0.00 | 0.00 | 57 | 1024.5 |
| 20260906164019 | 77 | 135 | 2.6 | 3.5 | 0.00 | 0.00 | 0.00 | 58 | 1024.7 |
| 20260906163022 | 77 | 137 | 1.7 | 3.5 | 0.00 | 0.00 | 0.00 | 57 | 1024.7 |
| 20260906162120 | 77 | 122 | 0.0 | 0.9 | 0.00 | 0.00 | 0.00 | 58 | 1024.7 |
| 20260906161121 | 76 | 360 | 0.9 | 0.9 | 0.00 | 0.00 | 0.00 | 57 | 1024.9 |
| 20260906155220 | 76 | 136 | 0.9 | 2.6 | 0.00 | 0.00 | 0.00 | 58 | 1024.8 |
| 20260906155121 | 76 | 146 | 1.7 | 3.5 | 0.00 | 0.00 | 0.00 | 58 | 1024.8 |
| 20260906154122 | 78 | 74 | 0.0 | 0.0 | 0.00 | 0.00 | 0.00 | 58 | 1024.9 |
| 20260906153121 | 77 | 157 | 0.0 | 0.0 | 0.00 | 0.00 | 0.00 | 58 | 1024.8 |
| 20260906152121 | 76 | 270 | 0.0 | 0.0 | 0.00 | 0.00 | 0.00 | 62 | 1024.9 |
| 20260906151123 | 74 | 360 | 0.0 | 0.0 | 0.00 | 0.00 | 0.00 | 66 | 1024.9 |
| 20260906150122 | 72 | 90 | 0.0 | 0.0 | 0.00 | 0.00 | 0.00 | 68 | 1025.0 |
| 20260906144222 | 70 | 315 | 0.0 | 0.0 | 0.00 | 0.00 | 0.00 | 69 | 1025.2 |
| 20260906141221 | 68 | 315 | 0.0 | 0.0 | 0.00 | 0.00 | 0.00 | 79 | 1025.1 |
| 20260906140221 | 66 | 315 | 0.0 | 0.0 | 0.00 | 0.00 | 0.00 | 85 | 1025.0 |
| 20260906135220 | 64 | 315 | 0.0 | 0.0 | 0.00 | 0.00 | 0.00 | 93 | 1025.2 |
| 20260906134222 | 62 | 315 | 0.0 | 0.0 | 0.00 | 0.00 | 0.00 | 96 | 1025.2 |
| 20260906132321 | 59 | 315 | 0.0 | 0.0 | 0.00 | 0.00 | 0.00 | 97 | 1025.3 |
| 20260906131322 | 57 | 315 | 0.9 | 1.7 | 0.00 | 0.01 | 0.00 | 98 | 1025.3 |
| 20260906125420 | 55 | 180 | 0.0 | 0.0 | 0.00 | 0.01 | 0.00 | 99 | 1025.1 |
| 20260906124321 | 55 | 180 | 0.0 | 0.0 | 0.00 | 0.01 | 0.00 | 99 | 1024.9 |
| 20260906123419 | 54 | 180 | 0.0 | 0.0 | 0.00 | 0.01 | 0.00 | 99 | 1024.8 |
| 20260906122422 | 54 | 180 | 0.0 | 0.0 | 0.00 | 0.01 | 0.00 | 98 | 1024.6 |
| 20260906121422 | 54 | 180 | 0.0 | 0.0 | 0.00 | 0.01 | 0.00 | 98 | 1024.8 |
| 20260906121321 | 54 | 180 | 0.0 | 0.0 | 0.00 | 0.01 | 0.00 | 98 | 1024.7 |
| 20260906120322 | 53 | 180 | 0.0 | 0.0 | 0.00 | 0.01 | 0.00 | 98 | 1024.7 |
| 20260906115322 | 53 | 180 | 0.0 | 0.0 | 0.00 | 0.01 | 0.00 | 98 | 1024.7 |
| 20260906113321 | 53 | 180 | 0.0 | 0.0 | 0.00 | 0.01 | 0.00 | 98 | 1024.5 |
| 20260906112419 | 53 | 180 | 0.0 | 0.0 | 0.00 | 0.01 | 0.00 | 98 | 1024.5 |
| 20260906111422 | 54 | 180 | 0.0 | 0.0 | 0.00 | 0.01 | 0.00 | 98 | 1024.3 |
| 20260906111321 | 54 | 180 | 0.0 | 0.0 | 0.00 | 0.01 | 0.00 | 98 | 1024.3 |
| 20260906110320 | 54 | 180 | 0.0 | 0.0 | 0.00 | 0.01 | 0.00 | 98 | 1024.4 |
| 20260906105320 | 54 | 180 | 0.0 | 0.0 | 0.00 | 0.01 | 0.00 | 97 | 1024.3 |
| 20260906104322 | 54 | 180 | 0.0 | 0.0 | 0.00 | 0.01 | 0.00 | 98 | 1024.1 |
| 20260906103320 | 54 | 180 | 0.0 | 0.0 | 0.00 | 0.01 | 0.00 | 98 | 1024.0 |
| 20260906101321 | 54 | 180 | 0.0 | 0.0 | 0.00 | 0.01 | 0.00 | 98 | 1024.1 |
| 20260906100321 | 54 | 180 | 0.0 | 0.0 | 0.00 | 0.01 | 0.00 | 97 | 1024.0 |
| 20260906100223 | 54 | 180 | 0.0 | 0.0 | 0.00 | 0.01 | 0.00 | 98 | 1024.0 |
| 20260906094221 | 55 | 180 | 0.0 | 0.0 | 0.00 | 0.01 | 0.00 | 97 | 1024.1 |
| 20260906093221 | 55 | 180 | 0.0 | 0.0 | 0.00 | 0.01 | 0.00 | 97 | 1024.0 |
| 20260906092220 | 55 | 180 | 0.0 | 0.0 | 0.00 | 0.01 | 0.00 | 98 | 1023.8 |
| 20260906091319 | 55 | 180 | 0.0 | 0.0 | 0.00 | 0.01 | 0.00 | 97 | 1023.9 |
| 20260906085220 | 55 | 180 | 0.0 | 0.0 | 0.00 | 0.01 | 0.00 | 97 | 1024.0 |
| 20260906084219 | 55 | 180 | 0.0 | 0.0 | 0.00 | 0.01 | 0.00 | 97 | 1024.1 |
| 20260906083220 | 55 | 180 | 0.0 | 0.0 | 0.00 | 0.01 | 0.00 | 97 | 1024.3 |
| 20260906082320 | 56 | 180 | 0.0 | 0.0 | 0.00 | 0.01 | 0.00 | 97 | 1024.0 |
| 20260906081321 | 56 | 180 | 0.0 | 0.0 | 0.00 | 0.01 | 0.00 | 97 | 1024.0 |
| 20260906080421 | 56 | 180 | 0.0 | 0.0 | 0.00 | 0.01 | 0.00 | 97 | 1023.7 |
| 20260906075421 | 56 | 180 | 0.0 | 0.0 | 0.00 | 0.01 | 0.00 | 96 | 1023.8 |
| 20260906074419 | 56 | 180 | 0.0 | 0.0 | 0.00 | 0.01 | 0.00 | 97 | 1023.7 |
| 20260906072519 | 56 | 180 | 0.0 | 0.0 | 0.00 | 0.01 | 0.00 | 97 | 1023.8 |
| 20260906071521 | 56 | 180 | 0.0 | 0.0 | 0.00 | 0.01 | 0.00 | 97 | 1023.7 |
| 20260906070520 | 56 | 180 | 0.0 | 0.0 | 0.00 | 0.01 | 0.00 | 95 | 1023.6 |
| 20260906065521 | 57 | 180 | 0.0 | 0.0 | 0.00 | 0.01 | 0.00 | 96 | 1023.7 |
| 20260906064620 | 57 | 180 | 0.0 | 0.0 | 0.00 | 0.01 | 0.00 | 96 | 1023.8 |
| 20260906062619 | 57 | 180 | 0.0 | 0.0 | 0.00 | 0.01 | 0.00 | 96 | 1023.7 |
| 20260906061621 | 58 | 180 | 0.0 | 0.0 | 0.00 | 0.01 | 0.00 | 96 | 1023.4 |
| 20260906055619 | 58 | 180 | 0.0 | 0.0 | 0.00 | 0.01 | 0.00 | 96 | 1023.5 |
| 20260906054619 | 58 | 180 | 0.0 | 0.0 | 0.00 | 0.01 | 0.00 | 96 | 1023.4 |
| 20260906053623 | 58 | 180 | 0.0 | 0.0 | 0.00 | 0.01 | 0.00 | 94 | 1023.2 |
| 20260906052721 | 58 | 180 | 0.0 | 0.0 | 0.00 | 0.01 | 0.00 | 95 | 1023.0 |
| 20260906051821 | 58 | 180 | 0.0 | 0.0 | 0.00 | 0.01 | 0.00 | 94 | 1023.0 |
| 20260906051719 | 58 | 180 | 0.0 | 0.0 | 0.00 | 0.01 | 0.00 | 94 | 1023.0 |
| 20260906045729 | 59 | 180 | 0.0 | 0.0 | 0.00 | 0.01 | 0.01 | 93 | 1022.9 |
| 20260906044728 | 59 | 180 | 0.0 | 0.0 | 0.00 | 0.01 | 0.01 | 94 | 1022.8 |
| 20260906043730 | 59 | 180 | 0.0 | 0.0 | 0.00 | 0.01 | 0.01 | 93 | 1022.8 |
| 20260906042728 | 60 | 180 | 0.0 | 0.0 | 0.00 | 0.01 | 0.01 | 93 | 1022.9 |
| 20260906040827 | 60 | 180 | 0.0 | 0.0 | 0.00 | 0.01 | 0.01 | 92 | 1023.0 |
| 20260906035831 | 61 | 180 | 0.0 | 0.0 | 0.00 | 0.01 | 0.01 | 91 | 1023.0 |
| 20260906034828 | 61 | 180 | 0.0 | 0.0 | 0.00 | 0.01 | 0.01 | 91 | 1022.8 |
| 20260906033827 | 61 | 180 | 0.0 | 0.0 | 0.00 | 0.01 | 0.01 | 90 | 1022.5 |
| 20260906032828 | 62 | 180 | 0.0 | 0.0 | 0.00 | 0.01 | 0.01 | 90 | 1022.6 |
| 20260906031831 | 62 | 180 | 0.0 | 0.0 | 0.00 | 0.01 | 0.01 | 89 | 1022.6 |
| 20260906030829 | 63 | 180 | 0.0 | 0.0 | 0.00 | 0.01 | 0.01 | 89 | 1022.6 |
| 20260906025928 | 63 | 180 | 0.0 | 0.0 | 0.00 | 0.01 | 0.01 | 88 | 1022.6 |
| 20260906024930 | 63 | 180 | 0.0 | 0.0 | 0.00 | 0.01 | 0.01 | 87 | 1022.5 |
| 20260906022930 | 65 | 180 | 0.0 | 0.0 | 0.00 | 0.01 | 0.01 | 84 | 1022.5 |
| 20260906022828 | 65 | 180 | 0.0 | 0.0 | 0.00 | 0.01 | 0.01 | 84 | 1022.5 |
| 20260906021828 | 65 | 180 | 0.0 | 0.0 | 0.00 | 0.01 | 0.01 | 83 | 1022.5 |
| 20260906015831 | 67 | 180 | 0.0 | 0.9 | 0.00 | 0.01 | 0.01 | 79 | 1022.3 |
| 20260906014827 | 67 | 180 | 0.0 | 0.0 | 0.00 | 0.01 | 0.01 | 78 | 1022.3 |
| 20260906014729 | 67 | 180 | 0.0 | 0.0 | 0.00 | 0.01 | 0.01 | 77 | 1022.1 |
| 20260906013729 | 68 | 180 | 0.0 | 0.0 | 0.00 | 0.01 | 0.01 | 76 | 1022.1 |
| 20260906011728 | 69 | 157 | 0.0 | 0.0 | 0.00 | 0.01 | 0.01 | 73 | 1021.8 |
| 20260906010729 | 69 | 157 | 0.0 | 0.0 | 0.00 | 0.01 | 0.01 | 72 | 1021.9 |
| 20260906005827 | 70 | 112 | 0.0 | 0.0 | 0.00 | 0.01 | 0.01 | 73 | 1021.6 |
| 20260906005728 | 70 | 112 | 0.0 | 0.0 | 0.00 | 0.01 | 0.01 | 73 | 1021.6 |
| 20260906004729 | 70 | 45 | 0.0 | 0.9 | 0.00 | 0.01 | 0.01 | 74 | 1021.4 |
| 20260906003729 | 70 | 157 | 0.0 | 0.0 | 0.00 | 0.01 | 0.01 | 74 | 1021.3 |
| 20260906002827 | 71 | 157 | 0.0 | 0.9 | 0.00 | 0.01 | 0.01 | 71 | 1021.3 |
| 20260906001830 | 72 | 157 | 0.0 | 0.0 | 0.00 | 0.01 | 0.01 | 66 | 1021.3 |
| 20260906000927 | 73 | 157 | 0.0 | 0.0 | 0.00 | 0.01 | 0.01 | 62 | 1021.2 |
| 20260906000027 | 74 | 157 | 0.0 | 0.0 | 0.00 | 0.01 | 0.01 | 59 | 1021.2 |
| 20260905235028 | 75 | 157 | 0.0 | 0.0 | 0.00 | 0.01 | 0.01 | 57 | 1021.2 |
| 20260905233129 | 75 | 135 | 0.0 | 0.9 | 0.00 | 0.03 | 0.01 | 55 | 1021.1 |
| 20260905232128 | 76 | 135 | 0.0 | 0.9 | 0.00 | 0.03 | 0.01 | 56 | 1021.1 |
| 20260905231130 | 76 | 110 | 0.9 | 1.7 | 0.00 | 0.03 | 0.01 | 54 | 1021.1 |
| 20260905230130 | 76 | 114 | 0.0 | 1.7 | 0.00 | 0.03 | 0.01 | 54 | 1021.2 |
| 20260905225130 | 77 | 133 | 0.0 | 1.7 | 0.00 | 0.03 | 0.01 | 52 | 1021.1 |
| 20260905224228 | 78 | 337 | 0.0 | 0.9 | 0.00 | 0.03 | 0.01 | 50 | 1021.1 |
| 20260905223227 | 79 | 96 | 1.7 | 2.6 | 0.00 | 0.04 | 0.01 | 50 | 1021.2 |
| 20260905223129 | 79 | 78 | 0.9 | 2.6 | 0.00 | 0.04 | 0.01 | 50 | 1021.2 |
| 20260905222128 | 80 | 315 | 0.9 | 3.5 | 0.00 | 0.04 | 0.01 | 49 | 1021.1 |
| 20260905221130 | 81 | 120 | 0.0 | 0.9 | 0.00 | 0.04 | 0.01 | 47 | 1021.1 |
| 20260905220129 | 80 | 360 | 0.0 | 0.0 | 0.00 | 0.04 | 0.01 | 49 | 1021.2 |
| 20260905215129 | 80 | 340 | 2.6 | 3.5 | 0.00 | 0.04 | 0.01 | 49 | 1021.3 |
| 20260905214128 | 79 | 315 | 0.9 | 1.7 | 0.00 | 0.04 | 0.01 | 51 | 1021.2 |
| 20260905213128 | 78 | 341 | 0.0 | 1.7 | 0.00 | 0.04 | 0.01 | 53 | 1021.2 |
| 20260905212127 | 78 | 117 | 0.9 | 1.7 | 0.00 | 0.04 | 0.01 | 54 | 1021.2 |
| 20260905211129 | 78 | 331 | 0.9 | 1.7 | 0.00 | 0.04 | 0.01 | 54 | 1021.2 |
| 20260905210128 | 77 | 22 | 0.0 | 2.6 | 0.00 | 0.04 | 0.01 | 54 | 1021.1 |
| 20260905204231 | 77 | 90 | 0.0 | 1.7 | 0.00 | 0.04 | 0.01 | 53 | 1020.8 |
| 20260905203229 | 77 | 58 | 0.0 | 0.9 | 0.00 | 0.04 | 0.01 | 53 | 1021.2 |
| 20260905202228 | 78 | 56 | 0.9 | 2.6 | 0.00 | 0.04 | 0.01 | 53 | 1021.2 |
| 20260905201229 | 78 | 14 | 2.6 | 4.3 | 0.00 | 0.04 | 0.01 | 53 | 1021.3 |
| 20260905200327 | 78 | 21 | 1.7 | 3.5 | 0.00 | 0.04 | 0.01 | 52 | 1021.3 |
| 20260905195329 | 79 | 360 | 0.0 | 0.9 | 0.00 | 0.04 | 0.01 | 51 | 1021.2 |
| 20260905194326 | 81 | 22 | 2.6 | 6.1 | 0.00 | 0.04 | 0.01 | 51 | 1021.4 |
| 20260905194230 | 81 | 22 | 2.6 | 4.3 | 0.00 | 0.04 | 0.01 | 51 | 1021.4 |
| 20260905193229 | 81 | 88 | 0.9 | 2.6 | 0.00 | 0.04 | 0.01 | 50 | 1021.4 |
| 20260905192327 | 80 | 169 | 0.0 | 1.7 | 0.00 | 0.04 | 0.01 | 51 | 1021.4 |
| 20260905191327 | 79 | 149 | 0.9 | 1.7 | 0.00 | 0.04 | 0.01 | 51 | 1021.6 |
| 20260905190328 | 79 | 139 | 0.0 | 1.7 | 0.00 | 0.04 | 0.01 | 53 | 1021.4 |
| 20260905185329 | 78 | 170 | 2.6 | 3.5 | 0.00 | 0.04 | 0.01 | 54 | 1021.5 |
| 20260905185228 | 78 | 137 | 1.7 | 3.5 | 0.00 | 0.04 | 0.01 | 55 | 1021.4 |
| 20260905184229 | 79 | 343 | 0.9 | 2.6 | 0.00 | 0.04 | 0.01 | 53 | 1021.5 |
| 20260905183227 | 80 | 340 | 0.9 | 3.5 | 0.00 | 0.04 | 0.01 | 51 | 1021.7 |
| 20260905182228 | 80 | 85 | 0.9 | 1.7 | 0.00 | 0.04 | 0.01 | 53 | 1021.9 |
| 20260905181327 | 80 | 111 | 0.9 | 1.7 | 0.00 | 0.04 | 0.01 | 53 | 1022.0 |
| 20260905180330 | 79 | 3 | 0.9 | 3.5 | 0.00 | 0.04 | 0.01 | 55 | 1021.9 |
| 20260905175428 | 78 | 156 | 1.7 | 3.5 | 0.00 | 0.04 | 0.01 | 56 | 1021.9 |
| 20260905174427 | 78 | 90 | 0.9 | 2.6 | 0.00 | 0.04 | 0.01 | 57 | 1021.9 |